EDLV

Details ICAO EDLV (NRN)
Name NIEDERRHEIN
Region Germany - Civil
Timezone Europe/Berlin (UTC+2.0)
Plans Departing 190
Arriving 149
Stats Elevation 106 ft / 32 m (AMSL)
Location 51.602455° 6.142132°
Runways 1
Magnetic Variation 1.665° E
Sunrise 2018-05-23 03:34:04 UTC / 2018-05-23 05:34:04 Local
Sunset 2018-05-23 19:33:09 UTC / 2018-05-23 21:33:09 Local
Advertisement - Login to hide

Runways

ID Width Length Bearing (true) Bearing (mag) Surface Threshold Offset Overrun Length
09 148 ft / 45 m 7,981 ft / 2,433 m 92.02° 90.35° Asphalt 0 ft / 0 m 902 ft / 275 m
27 148 ft / 45 m 7,981 ft / 2,433 m 272.05° 270.38° Asphalt 0 ft / 0 m 902 ft / 275 m

Approach Navaids

Runway Type Ident Frequency Range Bearing (true) Bearing (mag) Slope Elevation
27 Localiser INIW 110.70 MHz 18 nm / 33 km 271.93° 270.26° - 106 ft / 32 m (AMSL)
27 Glidescope INIW 110.70 MHz 10 nm / 19 km 272.04° 270.37° 3.00° 106 ft / 32 m (AMSL)

Map

Weather


0- 5 10 15 20 25 30 35+ Temperature / ° C

Clouds and Precipitation
Forecast for 2018-05-23 12:00 UTC. Updated 10 minutes ago

Ground ~20,000 ft ~40,000 ft Winds

METAR

EDLV 231120Z VRB05KT CAVOK 20/15 Q1020

TAF

TAF EDLV 230500Z 2306/2406 03004KT 9999 FEW040 BECMG 2309/2312 05010KT BECMG 2316/2319 04005KT

Frequencies

Recorded 124.45 MHz ATIS
Tower 129.40 MHz TWR
Tower 129.87 MHz LANGEN INFO
Approach 128.50 MHz LANGEN RADAR
Warning: Do not use this data for real-world aviation or navigation. No guarantee of current accuracy is given.